createdAt,value
2022-10-12T00:01:48.935Z,9.70
2022-10-12T00:04:15.814Z,9.70
2022-10-12T00:06:42.604Z,9.60
2022-10-12T00:09:09.540Z,9.60
2022-10-12T00:11:36.402Z,9.60
2022-10-12T00:14:03.165Z,9.50
2022-10-12T00:16:32.538Z,9.50
2022-10-12T00:18:59.311Z,9.40
2022-10-12T00:21:29.209Z,9.40
2022-10-12T00:24:02.061Z,9.40
2022-10-12T00:26:29.468Z,9.50
2022-10-12T00:29:00.214Z,9.40
2022-10-12T00:31:29.431Z,9.40
2022-10-12T00:34:04.396Z,9.40
2022-10-12T00:36:34.101Z,9.40
2022-10-12T00:39:03.120Z,9.40
2022-10-12T00:41:34.198Z,9.40
2022-10-12T00:44:00.946Z,9.30
2022-10-12T00:46:32.786Z,9.40
2022-10-12T00:49:17.652Z,9.30
2022-10-12T00:51:45.526Z,9.30
2022-10-12T00:54:14.339Z,9.40
2022-10-12T00:56:44.243Z,9.30
2022-10-12T00:59:12.814Z,9.30
2022-10-12T01:01:39.580Z,9.30
2022-10-12T01:04:06.312Z,9.20
2022-10-12T01:06:33.265Z,9.20
2022-10-12T01:08:59.999Z,9.20
2022-10-12T01:11:26.757Z,9.20
2022-10-12T01:13:53.552Z,9.20
2022-10-12T01:16:37.480Z,9.10
2022-10-12T01:19:29.039Z,9.10
2022-10-12T01:22:06.505Z,9.00
2022-10-12T01:24:53.552Z,9.00
2022-10-12T01:27:58.756Z,9.00
2022-10-12T01:30:35.855Z,9.00
2022-10-12T01:33:28.678Z,9.00
2022-10-12T01:35:57.215Z,9.00
2022-10-12T01:38:56.258Z,9.00
2022-10-12T01:41:32.466Z,9.10
2022-10-12T01:43:59.194Z,9.10
2022-10-12T01:46:25.907Z,9.10
2022-10-12T01:48:57.410Z,9.00
2022-10-12T01:51:30.577Z,9.10
2022-10-12T01:54:19.946Z,9.10
2022-10-12T01:57:06.932Z,9.00
2022-10-12T01:59:43.159Z,9.00
2022-10-12T02:02:35.452Z,9.00
2022-10-12T02:05:32.515Z,9.00
2022-10-12T02:08:19.985Z,9.00
2022-10-12T02:11:13.038Z,9.00
2022-10-12T02:13:56.082Z,9.00
2022-10-12T02:16:35.461Z,9.00
2022-10-12T02:19:02.406Z,9.00
2022-10-12T02:21:35.086Z,9.00
2022-10-12T02:24:05.768Z,9.00
2022-10-12T02:26:33.618Z,9.00
2022-10-12T02:29:01.092Z,9.00
2022-10-12T02:31:39.205Z,9.00
2022-10-12T02:34:18.003Z,9.00
2022-10-12T02:37:29.619Z,9.00
2022-10-12T02:40:02.157Z,9.00
2022-10-12T02:42:46.625Z,8.90
2022-10-12T02:45:21.665Z,8.90
2022-10-12T02:47:51.025Z,8.80
2022-10-12T02:50:20.765Z,8.80
2022-10-12T02:52:48.042Z,8.80
2022-10-12T02:55:14.913Z,8.80
2022-10-12T02:57:41.683Z,8.70
2022-10-12T03:00:09.211Z,8.70
2022-10-12T03:02:38.396Z,8.70
2022-10-12T03:05:05.661Z,8.70
2022-10-12T03:07:32.522Z,8.70
2022-10-12T03:09:59.277Z,8.70
2022-10-12T03:12:26.022Z,8.70
2022-10-12T03:14:52.847Z,8.70
2022-10-12T03:17:21.740Z,8.70
2022-10-12T03:19:50.679Z,8.70
2022-10-12T03:22:17.836Z,8.70
2022-10-12T03:24:46.825Z,8.60
2022-10-12T03:27:15.853Z,8.60
2022-10-12T03:29:42.653Z,8.60
2022-10-12T03:32:11.626Z,8.60
2022-10-12T03:34:40.619Z,8.60
2022-10-12T03:37:07.356Z,8.60
2022-10-12T03:39:36.450Z,8.70
2022-10-12T03:42:03.273Z,8.70
2022-10-12T03:44:30.009Z,8.70
2022-10-12T03:46:59.073Z,8.70
2022-10-12T03:49:28.070Z,8.70
2022-10-12T03:51:55.999Z,8.60
2022-10-12T03:54:22.789Z,8.60
2022-10-12T03:56:49.541Z,8.60
2022-10-12T03:59:16.297Z,8.60
2022-10-12T04:01:45.460Z,8.60
2022-10-12T04:04:14.736Z,8.60
2022-10-12T04:06:41.605Z,8.50
2022-10-12T04:09:08.604Z,8.50
2022-10-12T04:11:35.350Z,8.50
2022-10-12T04:14:02.137Z,8.50
2022-10-12T04:16:31.107Z,8.40
2022-10-12T04:18:58.136Z,8.40
2022-10-12T04:21:27.079Z,8.40
2022-10-12T04:23:58.647Z,8.30
2022-10-12T04:26:25.432Z,8.20
2022-10-12T04:28:52.279Z,8.20
2022-10-12T04:31:19.038Z,8.20
2022-10-12T04:33:45.776Z,8.10
2022-10-12T04:36:12.524Z,8.10
2022-10-12T04:38:39.343Z,8.10
2022-10-12T04:41:08.666Z,8.00
2022-10-12T04:43:35.411Z,8.00
2022-10-12T04:46:02.197Z,8.00
2022-10-12T04:48:29.341Z,8.00
2022-10-12T04:50:56.080Z,8.00
2022-10-12T04:53:23.010Z,8.00
2022-10-12T04:55:51.978Z,8.00
2022-10-12T04:58:20.911Z,7.90
2022-10-12T05:00:48.764Z,7.90
2022-10-12T05:03:18.048Z,8.00
2022-10-12T05:05:45.382Z,8.00
2022-10-12T05:08:13.092Z,8.00
2022-10-12T05:10:40.369Z,7.90
2022-10-12T05:13:07.344Z,7.90
2022-10-12T05:15:34.161Z,7.90
2022-10-12T05:18:03.571Z,7.90
2022-10-12T05:20:32.472Z,7.90
2022-10-12T05:23:01.954Z,7.90
2022-10-12T05:25:31.593Z,7.90
2022-10-12T05:27:58.389Z,7.90
2022-10-12T05:30:25.295Z,7.90
2022-10-12T05:32:54.478Z,7.80
2022-10-12T05:35:21.215Z,7.90
2022-10-12T05:37:47.996Z,7.90
2022-10-12T05:40:17.484Z,7.90
2022-10-12T05:42:45.616Z,7.90
2022-10-12T05:45:12.622Z,8.00
2022-10-12T05:47:40.489Z,8.00
2022-10-12T05:50:08.158Z,8.10
2022-10-12T05:52:34.964Z,8.10
2022-10-12T05:55:01.951Z,8.00
2022-10-12T05:57:36.756Z,8.10
2022-10-12T06:00:05.471Z,8.10
2022-10-12T06:02:32.205Z,8.10
2022-10-12T06:04:58.941Z,8.10
2022-10-12T06:07:25.747Z,8.10
2022-10-12T06:09:52.477Z,8.10
2022-10-12T06:12:21.650Z,8.10
2022-10-12T06:14:50.887Z,8.10
2022-10-12T06:17:17.596Z,8.10
2022-10-12T06:19:44.331Z,8.20
2022-10-12T06:22:11.059Z,8.20
2022-10-12T06:24:38.490Z,8.20
2022-10-12T06:27:05.365Z,8.20
2022-10-12T06:29:35.901Z,8.20
2022-10-12T06:32:02.631Z,8.30
2022-10-12T06:34:31.842Z,8.30
2022-10-12T06:37:01.805Z,8.30
2022-10-12T06:39:31.263Z,8.30
2022-10-12T06:41:57.999Z,8.40
2022-10-12T06:44:24.780Z,8.40
2022-10-12T06:46:51.608Z,8.40
2022-10-12T06:49:18.402Z,8.50
2022-10-12T06:51:45.182Z,8.50
2022-10-12T06:54:11.945Z,8.50
2022-10-12T06:56:39.667Z,8.60
2022-10-12T06:59:06.500Z,8.60
2022-10-12T07:01:37.873Z,8.70
2022-10-12T07:04:07.983Z,8.70
2022-10-12T07:06:34.762Z,8.70
2022-10-12T07:09:02.084Z,8.80
2022-10-12T07:11:28.845Z,8.80
2022-10-12T07:13:58.058Z,8.90
2022-10-12T07:16:26.936Z,8.90
2022-10-12T07:18:56.149Z,9.00
2022-10-12T07:21:22.923Z,9.00
2022-10-12T07:23:49.726Z,9.10
2022-10-12T07:26:16.549Z,9.20
2022-10-12T07:28:45.643Z,9.30
2022-10-12T07:31:14.591Z,9.30
2022-10-12T07:33:41.413Z,9.40
2022-10-12T07:36:20.777Z,9.40
2022-10-12T07:38:49.106Z,9.40
2022-10-12T07:41:18.579Z,9.50
2022-10-12T07:43:47.561Z,9.50
2022-10-12T07:46:14.313Z,9.60
2022-10-12T07:48:45.918Z,9.70
2022-10-12T07:51:15.855Z,9.80
2022-10-12T07:53:42.642Z,9.80
2022-10-12T07:56:15.036Z,9.90
2022-10-12T07:58:55.589Z,10.00
2022-10-12T08:01:23.728Z,10.00
2022-10-12T08:03:50.732Z,10.10
2022-10-12T08:06:21.534Z,10.10
2022-10-12T08:08:48.483Z,10.10
2022-10-12T08:11:15.513Z,10.20
2022-10-12T08:13:42.410Z,10.20
2022-10-12T08:16:11.288Z,10.20
2022-10-12T08:18:38.102Z,10.30
2022-10-12T08:21:10.170Z,10.30
2022-10-12T08:23:37.383Z,10.50
2022-10-12T08:26:04.679Z,10.50
2022-10-12T08:28:33.584Z,10.50
2022-10-12T08:31:02.497Z,10.60
2022-10-12T08:33:31.867Z,10.70
2022-10-12T08:36:03.154Z,10.70
2022-10-12T08:38:32.314Z,10.70
2022-10-12T08:41:26.336Z,10.80
2022-10-12T08:44:14.989Z,10.90
2022-10-12T08:46:41.796Z,11.00
2022-10-12T08:49:21.556Z,11.10
2022-10-12T08:51:59.241Z,11.20
2022-10-12T08:54:29.438Z,11.20
2022-10-12T08:56:56.677Z,11.30
2022-10-12T08:59:23.549Z,11.40
2022-10-12T09:02:02.033Z,11.40
2022-10-12T09:04:47.661Z,11.50
2022-10-12T09:07:26.254Z,11.60
2022-10-12T09:10:17.486Z,11.60
2022-10-12T09:13:20.314Z,11.70
2022-10-12T09:15:53.793Z,11.70
2022-10-12T09:18:42.228Z,11.80
2022-10-12T09:21:16.902Z,11.80
2022-10-12T09:23:46.246Z,11.90
2022-10-12T09:26:21.062Z,12.00
2022-10-12T09:28:55.347Z,12.00
2022-10-12T09:31:49.445Z,12.00
2022-10-12T09:34:19.251Z,12.00
2022-10-12T09:36:46.327Z,12.10
2022-10-12T09:39:24.529Z,12.10
2022-10-12T09:41:55.659Z,12.10
2022-10-12T09:44:43.458Z,12.20
2022-10-12T09:47:26.960Z,12.30
2022-10-12T09:49:58.402Z,12.30
2022-10-12T09:52:30.834Z,12.30
2022-10-12T09:55:04.878Z,12.30
2022-10-12T09:57:39.694Z,12.30
2022-10-12T10:00:27.082Z,12.40
2022-10-12T10:02:54.153Z,12.40
2022-10-12T10:05:30.641Z,12.40
2022-10-12T10:08:22.812Z,12.50
2022-10-12T10:10:50.171Z,12.50
2022-10-12T10:13:19.004Z,12.60
2022-10-12T10:15:53.514Z,12.60
2022-10-12T10:18:39.446Z,12.60
2022-10-12T10:21:07.831Z,12.80
2022-10-12T10:23:43.612Z,12.80
2022-10-12T10:26:11.874Z,12.80
2022-10-12T10:28:42.270Z,12.90
2022-10-12T10:31:16.537Z,13.00
2022-10-12T10:33:43.583Z,13.00
2022-10-12T10:36:28.622Z,13.00
2022-10-12T10:38:56.289Z,13.10
2022-10-12T10:41:26.292Z,13.10
2022-10-12T10:43:53.063Z,13.10
2022-10-12T10:46:30.912Z,13.20
2022-10-12T10:49:06.529Z,13.20
2022-10-12T10:51:59.630Z,13.20
2022-10-12T10:54:27.415Z,13.30
2022-10-12T10:57:02.091Z,13.30
2022-10-12T10:59:47.354Z,13.30
2022-10-12T11:02:38.675Z,13.40
2022-10-12T11:05:29.795Z,13.40
2022-10-12T11:08:03.353Z,13.50
2022-10-12T11:10:38.516Z,13.40
2022-10-12T11:13:11.401Z,13.40
2022-10-12T11:15:49.981Z,13.40
2022-10-12T11:18:16.832Z,13.50
2022-10-12T11:20:54.380Z,13.60
2022-10-12T11:23:30.081Z,13.60
2022-10-12T11:26:21.698Z,13.70
2022-10-12T11:28:48.582Z,13.70
2022-10-12T11:31:30.463Z,13.70
2022-10-12T11:34:03.175Z,13.80
2022-10-12T11:36:30.592Z,13.90
2022-10-12T11:39:06.826Z,13.90
2022-10-12T11:42:09.583Z,13.90
2022-10-12T11:44:44.241Z,13.90
2022-10-12T11:47:14.148Z,13.90
2022-10-12T11:49:46.990Z,13.90
2022-10-12T11:52:13.812Z,13.90
2022-10-12T11:54:52.569Z,13.90
2022-10-12T11:57:27.925Z,13.90
2022-10-12T12:00:05.063Z,13.90
2022-10-12T12:03:02.433Z,13.90
2022-10-12T12:05:31.416Z,13.80
2022-10-12T12:07:58.242Z,13.90
2022-10-12T12:10:28.342Z,14.00
2022-10-12T12:13:11.160Z,14.00
2022-10-12T12:16:01.447Z,14.10
2022-10-12T12:18:33.850Z,14.10
2022-10-12T12:21:07.210Z,14.20
2022-10-12T12:23:41.213Z,14.20
2022-10-12T12:26:16.096Z,14.20
2022-10-12T12:28:43.531Z,14.10
2022-10-12T12:31:17.198Z,14.20
2022-10-12T12:33:47.846Z,14.30
2022-10-12T12:36:33.424Z,14.30
2022-10-12T12:39:00.163Z,14.40
2022-10-12T12:41:56.446Z,14.40
2022-10-12T12:44:37.901Z,14.40
2022-10-12T12:47:26.038Z,14.30
2022-10-12T12:50:08.881Z,14.40
2022-10-12T12:52:38.904Z,14.50
2022-10-12T12:55:40.899Z,14.50
2022-10-12T12:58:36.998Z,14.60
2022-10-12T13:01:31.147Z,14.60
2022-10-12T13:04:23.184Z,14.60
2022-10-12T13:07:17.857Z,14.60
2022-10-12T13:10:06.246Z,14.60
2022-10-12T13:13:14.650Z,14.60
2022-10-12T13:16:00.122Z,14.60
2022-10-12T13:18:46.284Z,14.60
2022-10-12T13:21:22.964Z,14.60
2022-10-12T13:23:53.725Z,14.60
2022-10-12T13:26:25.661Z,14.50
2022-10-12T13:28:55.079Z,14.50
2022-10-12T13:31:27.317Z,14.50
2022-10-12T13:34:01.998Z,14.50
2022-10-12T13:36:30.750Z,14.40
2022-10-12T13:39:06.726Z,14.40
2022-10-12T13:41:33.518Z,14.40
2022-10-12T13:44:01.327Z,14.40
2022-10-12T13:46:34.319Z,14.40
2022-10-12T13:49:02.001Z,14.40
2022-10-12T13:51:31.389Z,14.40
2022-10-12T13:53:58.219Z,14.40
2022-10-12T13:56:29.147Z,14.40
2022-10-12T13:58:58.241Z,14.40
2022-10-12T14:01:25.419Z,14.50
2022-10-12T14:03:52.187Z,14.50
2022-10-12T14:06:36.760Z,14.50
2022-10-12T14:09:11.953Z,14.50
2022-10-12T14:11:38.820Z,14.50
2022-10-12T14:14:05.587Z,14.50
2022-10-12T14:16:34.429Z,14.40
2022-10-12T14:19:39.902Z,14.40
2022-10-12T14:22:06.744Z,14.40
2022-10-12T14:24:34.935Z,14.40
2022-10-12T14:27:02.935Z,14.40
2022-10-12T14:29:40.605Z,14.50
2022-10-12T14:32:29.514Z,14.50
2022-10-12T14:35:16.664Z,14.50
2022-10-12T14:37:46.148Z,14.40
2022-10-12T14:40:33.568Z,14.40
2022-10-12T14:43:08.066Z,14.40
2022-10-12T14:45:35.300Z,14.40
2022-10-12T14:48:02.440Z,14.40
2022-10-12T14:50:30.658Z,14.40
2022-10-12T14:53:05.046Z,14.40
2022-10-12T14:55:32.997Z,14.30
2022-10-12T14:58:03.158Z,14.30
2022-10-12T15:00:33.706Z,14.40
2022-10-12T15:03:03.078Z,14.40
2022-10-12T15:05:31.915Z,14.30
2022-10-12T15:07:59.281Z,14.30
2022-10-12T15:10:26.308Z,14.30
2022-10-12T15:12:53.213Z,14.30
2022-10-12T15:15:29.293Z,14.40
2022-10-12T15:17:56.544Z,14.40
2022-10-12T15:20:23.362Z,14.40
2022-10-12T15:22:50.169Z,14.40
2022-10-12T15:25:35.262Z,14.30
2022-10-12T15:28:05.304Z,14.40
2022-10-12T15:30:32.619Z,14.30
2022-10-12T15:32:59.427Z,14.30
2022-10-12T15:35:27.655Z,14.20
2022-10-12T15:37:56.786Z,14.30
2022-10-12T15:40:27.525Z,14.30
2022-10-12T15:42:54.343Z,14.30
2022-10-12T15:45:30.969Z,14.30
2022-10-12T15:47:57.810Z,14.30
2022-10-12T15:50:26.648Z,14.30
2022-10-12T15:52:55.851Z,14.30
2022-10-12T15:55:27.251Z,14.30
2022-10-12T15:57:54.116Z,14.30
2022-10-12T16:00:23.040Z,14.30
2022-10-12T16:02:49.830Z,14.30
2022-10-12T16:05:18.591Z,14.30
2022-10-12T16:07:45.483Z,14.30
2022-10-12T16:10:15.294Z,14.20
2022-10-12T16:12:45.731Z,14.20
2022-10-12T16:15:13.354Z,14.20
2022-10-12T16:17:40.127Z,14.20
2022-10-12T16:20:08.223Z,14.10
2022-10-12T16:22:35.689Z,14.10
2022-10-12T16:25:03.606Z,14.10
2022-10-12T16:27:30.672Z,14.10
2022-10-12T16:29:57.494Z,14.10
2022-10-12T16:32:26.405Z,14.00
2022-10-12T16:34:53.146Z,14.00
2022-10-12T16:37:22.466Z,14.00
2022-10-12T16:39:51.826Z,13.90
2022-10-12T16:42:18.621Z,13.90
2022-10-12T16:44:45.866Z,13.90
2022-10-12T16:47:12.822Z,13.90
2022-10-12T16:49:39.630Z,13.90
2022-10-12T16:52:06.702Z,13.90
2022-10-12T16:54:33.650Z,13.90
2022-10-12T16:57:03.015Z,13.90
2022-10-12T16:59:29.789Z,13.90
2022-10-12T17:01:56.606Z,13.90
2022-10-12T17:04:23.335Z,13.90
2022-10-12T17:06:50.105Z,13.90
2022-10-12T17:09:16.919Z,13.90
2022-10-12T17:11:43.691Z,13.90
2022-10-12T17:14:13.179Z,13.90
2022-10-12T17:16:48.698Z,13.90
2022-10-12T17:19:27.378Z,13.80
2022-10-12T17:21:54.279Z,13.80
2022-10-12T17:24:21.501Z,13.80
2022-10-12T17:26:48.353Z,13.80
2022-10-12T17:29:18.441Z,13.80
2022-10-12T17:31:48.062Z,13.80
2022-10-12T17:34:20.899Z,13.80
2022-10-12T17:36:47.824Z,13.80
2022-10-12T17:39:17.135Z,13.80
2022-10-12T17:41:44.061Z,13.80
2022-10-12T17:44:13.492Z,13.80
2022-10-12T17:46:40.705Z,13.80
2022-10-12T17:49:08.421Z,13.80
2022-10-12T17:51:37.369Z,13.80
2022-10-12T17:54:06.762Z,13.80
2022-10-12T17:56:33.602Z,13.80
2022-10-12T17:59:02.094Z,13.70
2022-10-12T18:01:29.571Z,13.70
2022-10-12T18:03:58.817Z,13.70
2022-10-12T18:06:25.629Z,13.70
2022-10-12T18:08:56.426Z,13.70
2022-10-12T18:11:23.592Z,13.70
2022-10-12T18:13:52.057Z,13.70
2022-10-12T18:16:22.881Z,13.70
2022-10-12T18:18:54.630Z,13.70
2022-10-12T18:21:25.695Z,13.70
2022-10-12T18:23:54.775Z,13.70
2022-10-12T18:26:22.290Z,13.70
2022-10-12T18:28:52.211Z,13.60
2022-10-12T18:31:20.217Z,13.60
2022-10-12T18:33:47.301Z,13.50
2022-10-12T18:36:19.167Z,13.40
2022-10-12T18:38:46.008Z,13.40
2022-10-12T18:41:15.453Z,13.40
2022-10-12T18:43:42.227Z,13.40
2022-10-12T18:46:10.417Z,13.40
2022-10-12T18:48:37.597Z,13.50
2022-10-12T18:51:15.214Z,13.50
2022-10-12T18:53:44.577Z,13.50
2022-10-12T18:56:11.487Z,13.50
2022-10-12T18:58:38.321Z,13.50
2022-10-12T19:01:10.177Z,13.50
2022-10-12T19:03:37.023Z,13.50
2022-10-12T19:06:05.702Z,13.50
2022-10-12T19:08:36.527Z,13.50
2022-10-12T19:11:08.208Z,13.50
2022-10-12T19:13:36.123Z,13.40
2022-10-12T19:16:04.799Z,13.40
2022-10-12T19:18:31.613Z,13.40
2022-10-12T19:21:03.062Z,13.40
2022-10-12T19:23:30.045Z,13.40
2022-10-12T19:25:57.201Z,13.40
2022-10-12T19:28:28.588Z,13.40
2022-10-12T19:30:55.365Z,13.40
2022-10-12T19:33:27.886Z,13.40
2022-10-12T19:35:54.922Z,13.30
2022-10-12T19:38:24.175Z,13.30
2022-10-12T19:40:51.004Z,13.30
2022-10-12T19:43:20.059Z,13.30
2022-10-12T19:45:46.892Z,13.20
2022-10-12T19:48:13.663Z,13.20
2022-10-12T19:50:40.456Z,13.20
2022-10-12T19:53:07.371Z,13.10
2022-10-12T19:55:39.306Z,13.10
2022-10-12T19:58:10.889Z,13.10
2022-10-12T20:00:37.759Z,13.10
2022-10-12T20:03:07.005Z,13.10
2022-10-12T20:05:34.407Z,13.10
2022-10-12T20:08:01.225Z,13.10
2022-10-12T20:10:27.997Z,13.10
2022-10-12T20:12:54.767Z,13.00
2022-10-12T20:15:23.695Z,13.00
2022-10-12T20:17:52.737Z,13.00
2022-10-12T20:20:19.555Z,12.90
2022-10-12T20:22:46.385Z,12.90
2022-10-12T20:25:13.180Z,12.90
2022-10-12T20:27:42.221Z,12.90
2022-10-12T20:30:10.022Z,12.80
2022-10-12T20:32:36.913Z,12.80
2022-10-12T20:35:06.739Z,12.70
2022-10-12T20:37:33.697Z,12.70
2022-10-12T20:40:03.151Z,12.70
2022-10-12T20:42:29.972Z,12.60
2022-10-12T20:44:56.736Z,12.60
2022-10-12T20:47:23.511Z,12.60
2022-10-12T20:49:52.925Z,12.60
2022-10-12T20:52:24.271Z,12.50
2022-10-12T20:54:52.441Z,12.50
2022-10-12T20:57:21.400Z,12.50
2022-10-12T20:59:49.129Z,12.50
2022-10-12T21:02:16.740Z,12.40
2022-10-12T21:04:46.902Z,12.40
2022-10-12T21:07:16.393Z,12.40
2022-10-12T21:09:43.179Z,12.40
2022-10-12T21:12:09.995Z,12.30
2022-10-12T21:14:39.261Z,12.30
2022-10-12T21:17:08.564Z,12.30
2022-10-12T21:19:37.557Z,12.30
2022-10-12T21:22:04.420Z,12.20
2022-10-12T21:24:33.296Z,12.20
2022-10-12T21:27:00.099Z,12.10
2022-10-12T21:29:31.556Z,12.10
2022-10-12T21:31:58.354Z,12.00
2022-10-12T21:34:25.139Z,12.00
2022-10-12T21:36:56.709Z,12.00
2022-10-12T21:39:23.659Z,11.90
2022-10-12T21:41:50.466Z,11.80
2022-10-12T21:44:17.347Z,11.80
2022-10-12T21:46:44.171Z,11.70
2022-10-12T21:49:11.124Z,11.70
2022-10-12T21:51:38.017Z,11.70
2022-10-12T21:54:05.726Z,11.60
2022-10-12T21:56:36.002Z,11.60
2022-10-12T21:59:03.158Z,11.60
2022-10-12T22:01:35.256Z,11.60
2022-10-12T22:04:03.878Z,11.50
2022-10-12T22:06:30.791Z,11.50
2022-10-12T22:08:59.377Z,11.40
2022-10-12T22:11:27.308Z,11.40
2022-10-12T22:13:58.151Z,11.40
2022-10-12T22:16:24.975Z,11.30
2022-10-12T22:18:51.727Z,11.20
2022-10-12T22:21:21.567Z,11.20
2022-10-12T22:23:48.490Z,11.20
2022-10-12T22:26:18.683Z,11.20
2022-10-12T22:28:45.682Z,11.10
2022-10-12T22:31:13.260Z,11.10
2022-10-12T22:33:44.691Z,11.00
2022-10-12T22:36:11.839Z,11.00
2022-10-12T22:38:38.648Z,11.00
2022-10-12T22:41:10.662Z,11.00
2022-10-12T22:43:39.974Z,11.00
2022-10-12T22:46:06.938Z,10.90
2022-10-12T22:48:36.470Z,10.90
2022-10-12T22:51:04.025Z,10.90
2022-10-12T22:53:30.892Z,10.90
2022-10-12T22:56:01.392Z,10.90
2022-10-12T22:58:28.586Z,10.90
2022-10-12T23:01:03.206Z,10.90
2022-10-12T23:03:31.514Z,10.90
2022-10-12T23:05:58.313Z,10.80
2022-10-12T23:08:27.771Z,10.80
2022-10-12T23:10:57.711Z,10.80
2022-10-12T23:13:29.168Z,10.80
2022-10-12T23:15:55.952Z,10.80
2022-10-12T23:18:24.996Z,10.80
2022-10-12T23:20:51.749Z,10.80
2022-10-12T23:23:21.032Z,10.80
2022-10-12T23:25:50.048Z,10.80
2022-10-12T23:28:16.840Z,10.80
2022-10-12T23:30:43.704Z,10.80
2022-10-12T23:33:10.474Z,10.70
2022-10-12T23:35:37.228Z,10.70
2022-10-12T23:38:04.001Z,10.60
2022-10-12T23:40:33.012Z,10.60
2022-10-12T23:43:02.007Z,10.50
2022-10-12T23:45:28.840Z,10.50
2022-10-12T23:47:55.616Z,10.40
2022-10-12T23:50:22.424Z,10.50
2022-10-12T23:52:51.354Z,10.40
2022-10-12T23:55:18.084Z,10.40
2022-10-12T23:57:47.400Z,10.40
